Time;durP1;ratioP1;P1;durP2;ratioP2;P2;SDS_P1;SDS_P2;PMS_P1;PMS_P2;Temp;Humidity;BMP_temperature;BMP_pressure;BME280_temperature;BME280_humidity;BME280_pressure;Samples;Min_cycle;Max_cycle;Signal;HPM_P1;HPM_P2
2021/03/17 00:02:21;;;;;;;;;;;5.10;99.90;;;;;;5054736;28;19908;-78
2021/03/17 00:04:47;;;;;;;;;;;5.10;99.90;;;;;;5053965;28;19913;-78
2021/03/17 00:07:12;;;;;;;;;;;5.10;99.90;;;;;;5054498;28;19905;-78
2021/03/17 00:09:38;;;;;;;;;;;5.10;99.90;;;;;;5055595;28;19916;-78
2021/03/17 00:12:04;;;;;;;;;;;5.10;99.90;;;;;;5053863;28;19970;-80
2021/03/17 00:14:29;;;;;;;;;;;5.10;99.90;;;;;;5052292;28;20279;-79
2021/03/17 00:16:54;;;;;;;;;;;5.10;99.90;;;;;;5052198;28;19916;-77
2021/03/17 00:19:20;;;;;;;;;;;5.10;99.90;;;;;;5053291;28;20396;-77
2021/03/17 00:21:45;;;;;;;;;;;5.10;99.90;;;;;;5052266;28;20071;-77
2021/03/17 00:24:11;;;;;;;;;;;5.10;99.90;;;;;;5054438;28;19915;-78
2021/03/17 00:26:36;;;;;;;;;;;5.20;99.90;;;;;;5052719;28;20338;-77
2021/03/17 00:29:02;;;;;;;;;;;5.10;99.90;;;;;;5051843;28;19910;-77
2021/03/17 00:31:27;;;;;;;;;;;5.20;99.90;;;;;;5052082;28;19960;-78
2021/03/17 00:33:53;;;;;;;;;;;5.30;99.90;;;;;;5052767;28;19908;-77
2021/03/17 00:36:18;;;;;;;;;;;5.20;99.90;;;;;;5052386;28;20276;-77
2021/03/17 00:38:44;;;;;;;;;;;5.20;99.90;;;;;;5054232;28;19913;-77
2021/03/17 00:41:10;;;;;;;;;;;5.10;99.90;;;;;;5054441;28;19905;-77
2021/03/17 00:43:36;;;;;;;;;;;5.10;99.90;;;;;;5053115;28;19912;-78
2021/03/17 00:46:01;;;;;;;;;;;5.20;99.90;;;;;;5053231;28;19905;-77
2021/03/17 00:48:27;;;;;;;;;;;5.10;99.90;;;;;;5053905;28;19966;-77
2021/03/17 00:50:52;;;;;;;;;;;5.10;99.90;;;;;;5051835;28;19905;-78
2021/03/17 00:53:17;;;;;;;;;;;5.10;99.90;;;;;;5053126;28;19987;-80
2021/03/17 00:55:43;;;;;;;;;;;5.10;99.90;;;;;;5053462;28;19905;-76
2021/03/17 00:58:08;;;;;;;;;;;5.10;99.90;;;;;;5054091;28;19931;-78
2021/03/17 01:00:34;;;;;;;;;;;5.10;99.90;;;;;;5053498;28;20004;-78
2021/03/17 01:02:59;;;;;;;;;;;5.10;99.90;;;;;;5054125;28;19912;-77
2021/03/17 01:05:25;;;;;;;;;;;5.00;99.90;;;;;;5054964;28;20421;-78
2021/03/17 01:07:50;;;;;;;;;;;5.00;99.90;;;;;;5053890;28;19912;-78
2021/03/17 01:10:42;;;;;;;;;;;5.00;99.90;;;;;;5052401;28;19912;-78
2021/03/17 01:13:08;;;;;;;;;;;5.10;99.90;;;;;;5050473;28;19909;-77
2021/03/17 01:15:33;;;;;;;;;;;5.00;99.90;;;;;;5052726;28;19954;-77
2021/03/17 01:17:59;;;;;;;;;;;5.10;99.90;;;;;;5051426;28;19968;-78
2021/03/17 01:20:25;;;;;;;;;;;5.10;99.90;;;;;;5053095;28;19912;-79
2021/03/17 01:22:52;;;;;;;;;;;5.10;99.90;;;;;;5053191;28;19912;-78
2021/03/17 01:25:26;;;;;;;;;;;5.00;99.90;;;;;;5056230;28;19911;-80
2021/03/17 01:27:52;;;;;;;;;;;5.00;99.90;;;;;;5058921;28;20303;-76
2021/03/17 01:30:18;;;;;;;;;;;5.00;99.90;;;;;;5057051;28;20016;-77
2021/03/17 01:32:44;;;;;;;;;;;4.90;99.90;;;;;;5057357;28;20377;-75
2021/03/17 01:35:11;;;;;;;;;;;4.80;99.90;;;;;;5058050;28;19962;-78
2021/03/17 01:37:36;;;;;;;;;;;4.70;99.90;;;;;;5057227;28;19968;-76
2021/03/17 01:40:02;;;;;;;;;;;4.60;99.90;;;;;;5055757;28;19952;-77
2021/03/17 01:42:28;;;;;;;;;;;4.60;99.90;;;;;;5056896;28;20390;-78
2021/03/17 01:44:53;;;;;;;;;;;4.70;99.90;;;;;;5056806;28;19995;-79
2021/03/17 01:47:18;;;;;;;;;;;4.70;99.90;;;;;;5057197;28;19911;-76
2021/03/17 01:49:44;;;;;;;;;;;4.70;99.90;;;;;;5056759;28;19905;-79
2021/03/17 01:52:10;;;;;;;;;;;4.70;99.90;;;;;;5058751;28;19966;-77
2021/03/17 01:54:35;;;;;;;;;;;4.70;99.90;;;;;;5057432;28;19915;-78
2021/03/17 01:57:02;;;;;;;;;;;4.80;99.90;;;;;;5055486;28;20065;-77
2021/03/17 01:59:27;;;;;;;;;;;4.80;99.90;;;;;;5057452;28;19970;-78
2021/03/17 02:01:53;;;;;;;;;;;4.80;99.90;;;;;;5059017;28;20310;-78
2021/03/17 02:04:18;;;;;;;;;;;4.80;99.90;;;;;;5056934;28;19936;-78
2021/03/17 02:06:44;;;;;;;;;;;4.80;99.90;;;;;;5058625;28;19958;-78
2021/03/17 02:09:09;;;;;;;;;;;4.90;99.90;;;;;;5058471;28;19905;-77
2021/03/17 02:11:41;;;;;;;;;;;4.90;99.90;;;;;;5057039;28;19997;-76
2021/03/17 02:14:16;;;;;;;;;;;4.80;99.90;;;;;;5055153;28;19948;-77
2021/03/17 02:16:46;;;;;;;;;;;4.90;99.90;;;;;;5056400;28;19905;-77
2021/03/17 02:19:11;;;;;;;;;;;4.90;99.90;;;;;;5055211;28;19916;-77
2021/03/17 02:21:52;;;;;;;;;;;4.90;99.90;;;;;;5056566;28;19908;-77
2021/03/17 02:24:33;;;;;;;;;;;4.80;99.90;;;;;;5054781;28;20368;-77
2021/03/17 02:27:06;;;;;;;;;;;5.00;99.90;;;;;;5055980;28;19940;-77
2021/03/17 02:29:43;;;;;;;;;;;4.90;99.90;;;;;;5057641;28;19959;-80
2021/03/17 02:32:28;;;;;;;;;;;4.90;99.90;;;;;;5056423;28;19995;-78
2021/03/17 02:34:54;;;;;;;;;;;4.90;99.90;;;;;;5055760;28;19995;-79
2021/03/17 02:37:22;;;;;;;;;;;4.90;99.90;;;;;;5054880;28;19911;-77
2021/03/17 02:39:54;;;;;;;;;;;4.80;99.90;;;;;;5055009;28;19909;-77
2021/03/17 02:42:22;;;;;;;;;;;4.80;99.90;;;;;;5056158;28;20363;-78
2021/03/17 02:44:57;;;;;;;;;;;4.90;99.90;;;;;;5057838;28;19909;-77
2021/03/17 02:47:24;;;;;;;;;;;4.90;99.90;;;;;;5055010;28;20360;-77
2021/03/17 02:49:52;;;;;;;;;;;4.90;99.90;;;;;;5054783;28;19912;-75
2021/03/17 02:52:18;;;;;;;;;;;4.90;99.90;;;;;;5055135;28;19940;-77
2021/03/17 02:54:44;;;;;;;;;;;4.90;99.90;;;;;;5055527;28;20324;-77
2021/03/17 02:57:21;;;;;;;;;;;4.90;99.90;;;;;;5055921;28;20394;-78
2021/03/17 02:59:50;;;;;;;;;;;4.90;99.90;;;;;;5055413;28;19905;-76
2021/03/17 03:02:17;;;;;;;;;;;4.90;99.90;;;;;;5054625;28;19912;-77
2021/03/17 03:04:43;;;;;;;;;;;4.80;99.90;;;;;;5056527;28;19905;-79
2021/03/17 03:07:09;;;;;;;;;;;4.80;99.90;;;;;;5055970;28;20328;-78
2021/03/17 03:09:35;;;;;;;;;;;4.80;99.90;;;;;;5055819;28;19905;-77
2021/03/17 03:12:00;;;;;;;;;;;4.80;99.90;;;;;;5057001;28;20253;-79
2021/03/17 03:14:26;;;;;;;;;;;4.80;99.90;;;;;;5056078;28;20304;-77
2021/03/17 03:16:57;;;;;;;;;;;4.80;99.90;;;;;;5055436;28;19905;-77
2021/03/17 03:19:23;;;;;;;;;;;4.80;99.90;;;;;;5056189;28;19909;-78
2021/03/17 03:21:51;;;;;;;;;;;5.00;99.90;;;;;;5056836;28;19979;-78
2021/03/17 03:24:17;;;;;;;;;;;5.00;99.90;;;;;;5056716;28;19979;-78
2021/03/17 03:26:42;;;;;;;;;;;4.80;99.90;;;;;;5055001;28;19944;-77
2021/03/17 03:29:08;;;;;;;;;;;4.80;99.90;;;;;;5053571;28;19909;-78
2021/03/17 03:31:34;;;;;;;;;;;4.80;99.90;;;;;;5052995;28;19912;-77
2021/03/17 03:34:00;;;;;;;;;;;4.80;99.90;;;;;;5054263;28;19971;-77
2021/03/17 03:36:26;;;;;;;;;;;4.80;99.90;;;;;;5053247;28;20378;-77
2021/03/17 03:38:52;;;;;;;;;;;4.80;99.90;;;;;;5054320;28;19991;-77
2021/03/17 03:41:17;;;;;;;;;;;4.80;99.90;;;;;;5053205;28;19915;-77
2021/03/17 03:43:43;;;;;;;;;;;4.80;99.90;;;;;;5053380;28;19948;-77
2021/03/17 03:46:08;;;;;;;;;;;4.90;99.90;;;;;;5052839;28;20379;-77
2021/03/17 03:48:36;;;;;;;;;;;4.80;99.90;;;;;;5052835;28;19951;-78
2021/03/17 03:51:03;;;;;;;;;;;4.80;99.90;;;;;;5053911;28;19932;-77
2021/03/17 03:53:28;;;;;;;;;;;4.80;99.90;;;;;;5054773;28;19905;-76
2021/03/17 03:56:06;;;;;;;;;;;4.80;99.90;;;;;;5052655;28;19911;-76
2021/03/17 03:58:31;;;;;;;;;;;4.90;99.90;;;;;;5054446;28;19958;-76
2021/03/17 04:01:05;;;;;;;;;;;4.90;99.90;;;;;;5053083;28;19908;-77
2021/03/17 04:03:35;;;;;;;;;;;4.90;99.90;;;;;;5053730;28;19909;-77
2021/03/17 04:06:01;;;;;;;;;;;4.90;99.90;;;;;;5052287;28;19915;-76
2021/03/17 04:08:27;;;;;;;;;;;4.90;99.90;;;;;;5053151;28;19944;-78
2021/03/17 04:10:56;;;;;;;;;;;4.90;99.90;;;;;;5054331;28;19909;-78
2021/03/17 04:13:22;;;;;;;;;;;4.90;99.90;;;;;;5054184;28;19909;-77
2021/03/17 04:15:49;;;;;;;;;;;4.80;99.90;;;;;;5053066;28;19908;-77
2021/03/17 04:18:15;;;;;;;;;;;4.90;99.90;;;;;;5052031;28;20281;-78
2021/03/17 04:20:42;;;;;;;;;;;4.90;99.90;;;;;;5055082;28;19904;-77
2021/03/17 04:23:08;;;;;;;;;;;4.90;99.90;;;;;;5052990;28;19931;-77
2021/03/17 04:25:35;;;;;;;;;;;5.00;99.90;;;;;;5054199;28;20348;-78
2021/03/17 04:28:01;;;;;;;;;;;5.00;99.90;;;;;;5053238;28;19905;-77
2021/03/17 04:30:27;;;;;;;;;;;5.00;99.90;;;;;;5052428;28;20003;-77
2021/03/17 04:32:53;;;;;;;;;;;5.00;99.90;;;;;;5053043;28;20000;-77
2021/03/17 04:35:20;;;;;;;;;;;5.10;99.90;;;;;;5051729;28;20003;-79
2021/03/17 04:37:46;;;;;;;;;;;5.10;99.90;;;;;;5052029;28;19905;-76
2021/03/17 04:40:13;;;;;;;;;;;5.00;99.90;;;;;;5053136;28;19905;-78
2021/03/17 04:42:39;;;;;;;;;;;5.00;99.90;;;;;;5051982;28;19908;-77
2021/03/17 04:45:05;;;;;;;;;;;4.90;99.90;;;;;;5055050;28;19904;-77
2021/03/17 04:47:31;;;;;;;;;;;5.00;99.90;;;;;;5054713;28;19905;-77
2021/03/17 04:49:57;;;;;;;;;;;5.00;99.90;;;;;;5053458;28;19904;-77
2021/03/17 04:52:23;;;;;;;;;;;5.00;99.90;;;;;;5052991;28;19905;-77
2021/03/17 04:54:48;;;;;;;;;;;4.90;99.90;;;;;;5053166;28;19909;-78
2021/03/17 04:57:16;;;;;;;;;;;4.90;99.90;;;;;;5053275;28;20287;-78
2021/03/17 04:59:42;;;;;;;;;;;4.90;99.90;;;;;;5053948;28;19912;-78
2021/03/17 05:02:09;;;;;;;;;;;5.00;99.90;;;;;;5053572;28;19966;-77
2021/03/17 05:04:36;;;;;;;;;;;4.90;99.90;;;;;;5053360;28;19955;-78
2021/03/17 05:07:02;;;;;;;;;;;4.90;99.90;;;;;;5053460;28;19904;-78
2021/03/17 05:09:28;;;;;;;;;;;5.00;99.90;;;;;;5054830;28;19979;-78
2021/03/17 05:11:54;;;;;;;;;;;4.90;99.90;;;;;;5052092;28;19927;-77
2021/03/17 05:14:20;;;;;;;;;;;4.80;99.90;;;;;;5053311;28;19916;-77
2021/03/17 05:16:45;;;;;;;;;;;4.80;99.90;;;;;;5053401;28;19905;-77
2021/03/17 05:19:12;;;;;;;;;;;4.80;99.90;;;;;;5051867;28;19908;-78
2021/03/17 05:21:37;;;;;;;;;;;4.90;99.90;;;;;;5051808;28;19905;-78
2021/03/17 05:24:03;;;;;;;;;;;4.90;99.90;;;;;;5052982;28;19999;-77
2021/03/17 05:26:29;;;;;;;;;;;5.10;99.90;;;;;;5052061;28;19905;-78
2021/03/17 05:28:57;;;;;;;;;;;5.00;99.90;;;;;;5051837;28;19912;-77
2021/03/17 05:31:23;;;;;;;;;;;5.10;99.90;;;;;;5053248;28;19909;-77
2021/03/17 05:33:50;;;;;;;;;;;5.00;99.90;;;;;;5053019;28;19921;-77
2021/03/17 05:36:15;;;;;;;;;;;5.00;99.90;;;;;;5051980;28;19904;-77
2021/03/17 05:38:41;;;;;;;;;;;5.00;99.90;;;;;;5053077;28;19912;-78
2021/03/17 05:41:06;;;;;;;;;;;5.00;99.90;;;;;;5052945;28;19905;-77
2021/03/17 05:43:33;;;;;;;;;;;4.80;99.90;;;;;;5051817;28;19912;-77
2021/03/17 05:46:02;;;;;;;;;;;4.90;99.90;;;;;;5052113;28;19904;-77
2021/03/17 05:48:28;;;;;;;;;;;4.90;99.90;;;;;;5053058;28;19912;-77
2021/03/17 05:50:55;;;;;;;;;;;4.90;99.90;;;;;;5050593;28;19909;-77
2021/03/17 05:53:21;;;;;;;;;;;5.10;99.90;;;;;;5050046;28;19958;-77
2021/03/17 05:55:46;;;;;;;;;;;5.00;99.90;;;;;;5051611;28;19913;-77
2021/03/17 05:58:12;;;;;;;;;;;4.90;99.90;;;;;;5051466;28;19904;-76
2021/03/17 06:00:38;;;;;;;;;;;4.80;99.90;;;;;;5050263;28;20407;-77
2021/03/17 06:03:04;;;;;;;;;;;4.90;99.90;;;;;;5051441;28;20273;-77
2021/03/17 06:05:30;;;;;;;;;;;4.90;99.90;;;;;;5051200;28;19954;-77
2021/03/17 06:08:11;;;;;;;;;;;4.80;99.90;;;;;;5051610;28;19905;-77
2021/03/17 06:10:37;;;;;;;;;;;4.90;99.90;;;;;;5052883;28;19917;-77
2021/03/17 06:13:11;;;;;;;;;;;4.80;99.90;;;;;;5057164;28;19936;-78
2021/03/17 06:15:37;;;;;;;;;;;4.80;99.90;;;;;;5056811;28;19913;-77
2021/03/17 06:18:22;;;;;;;;;;;4.90;99.90;;;;;;5056864;28;19912;-78
2021/03/17 06:20:48;;;;;;;;;;;4.90;99.90;;;;;;5054086;28;20367;-77
2021/03/17 06:23:14;;;;;;;;;;;5.00;99.90;;;;;;5053891;28;20035;-77
2021/03/17 06:25:43;;;;;;;;;;;5.00;99.90;;;;;;5055213;28;19947;-78
2021/03/17 06:28:09;;;;;;;;;;;5.10;99.90;;;;;;5054319;28;19956;-80
2021/03/17 06:30:35;;;;;;;;;;;5.00;99.90;;;;;;5053702;28;19904;-77
2021/03/17 06:33:00;;;;;;;;;;;5.20;99.90;;;;;;5036182;28;24075;-78
2021/03/17 06:35:26;;;;;;;;;;;5.20;99.90;;;;;;5043043;28;19913;-78
2021/03/17 06:37:52;;;;;;;;;;;5.30;99.90;;;;;;5050104;28;19948;-77
2021/03/17 06:40:38;;;;;;;;;;;5.30;99.90;;;;;;5053016;28;19912;-77
2021/03/17 06:43:05;;;;;;;;;;;5.30;99.90;;;;;;5053269;28;19958;-77
2021/03/17 06:45:35;;;;;;;;;;;5.30;99.90;;;;;;5052034;28;19905;-77
2021/03/17 06:48:20;;;;;;;;;;;5.40;99.90;;;;;;5053514;28;19912;-77
2021/03/17 06:50:46;;;;;;;;;;;5.40;99.90;;;;;;5051703;28;19905;-76
2021/03/17 06:53:11;;;;;;;;;;;5.30;99.90;;;;;;5053321;28;19915;-77
2021/03/17 06:55:37;;;;;;;;;;;5.30;99.90;;;;;;5052148;28;25089;-78
2021/03/17 06:58:02;;;;;;;;;;;5.30;99.90;;;;;;5054262;28;19905;-78
2021/03/17 07:00:37;;;;;;;;;;;5.60;99.90;;;;;;5054081;28;20274;-78
2021/03/17 07:03:04;;;;;;;;;;;5.80;99.90;;;;;;5050739;28;19917;-77
2021/03/17 07:05:31;;;;;;;;;;;5.80;99.90;;;;;;5041180;28;24068;-76
2021/03/17 07:07:56;;;;;;;;;;;5.80;99.90;;;;;;5033157;28;19912;-77
2021/03/17 07:10:32;;;;;;;;;;;5.70;99.90;;;;;;5048115;28;19909;-76
2021/03/17 07:12:58;;;;;;;;;;;5.60;99.90;;;;;;5055269;28;19916;-77
2021/03/17 07:15:24;;;;;;;;;;;5.50;99.90;;;;;;5052225;28;19909;-80
2021/03/17 07:17:52;;;;;;;;;;;5.70;99.90;;;;;;5053610;28;24077;-78
2021/03/17 07:20:36;;;;;;;;;;;5.90;99.90;;;;;;5052905;28;19970;-78
2021/03/17 07:23:20;;;;;;;;;;;6.20;99.90;;;;;;5034757;28;19905;-77
2021/03/17 07:26:18;;;;;;;8.40;4.40;;;6.60;99.90;;;;;;5033855;28;20276;-79
2021/03/17 07:28:47;;;;;;;7.65;4.00;;;6.70;99.90;;;;;;5037331;28;19931;-79
2021/03/17 07:31:21;;;;;;;11.13;4.85;;;6.60;99.90;;;;;;5053458;28;20029;-77
2021/03/17 07:33:47;;;;;;;7.65;4.35;;;6.90;99.90;;;;;;5053328;28;20024;-78
2021/03/17 07:36:28;;;;;;;;;;;7.30;99.90;;;;;;5052218;28;19909;-78
2021/03/17 07:38:54;;;;;;;;;;;7.30;99.90;;;;;;5051007;28;20498;-76
2021/03/17 07:41:20;;;;;;;;;;;7.70;99.90;;;;;;5052292;28;19915;-77
2021/03/17 07:43:46;;;;;;;4.90;3.20;;;8.50;99.90;;;;;;5053041;28;19909;-77
2021/03/17 07:46:12;;;;;;;5.57;2.60;;;9.30;99.90;;;;;;5052168;28;20143;-76
2021/03/17 07:48:39;;;;;;;8.18;3.30;;;9.50;99.90;;;;;;5052446;28;20033;-77
2021/03/17 07:51:07;;;;;;;4.32;3.03;;;9.00;99.90;;;;;;5052945;28;20025;-78
2021/03/17 07:53:35;;;;;;;5.70;2.80;;;8.60;99.90;;;;;;5052281;28;20318;-78
2021/03/17 07:56:01;;;;;;;;;;;8.70;99.90;;;;;;5052354;28;20481;-77
2021/03/17 07:58:26;;;;;;;;;;;11.00;99.90;;;;;;5052380;28;19905;-77
2021/03/17 08:00:52;;;;;;;;;;;14.30;99.90;;;;;;5052683;28;19963;-78
2021/03/17 08:03:19;;;;;;;;;;;16.30;99.90;;;;;;5054120;28;19909;-78
2021/03/17 08:05:45;;;;;;;;;;;18.20;96.80;;;;;;5052315;28;19995;-78
2021/03/17 08:08:11;;;;;;;6.20;2.40;;;19.20;82.40;;;;;;5051726;28;20082;-76
2021/03/17 08:10:42;;;;;;;;;;;19.50;80.00;;;;;;5052323;28;20052;-78
2021/03/17 08:13:08;;;;;;;;;;;19.60;72.80;;;;;;5052434;28;20030;-77
2021/03/17 08:15:33;;;;;;;;;;;18.10;81.80;;;;;;5051296;28;20326;-78
2021/03/17 08:17:59;;;;;;;;;;;15.70;98.30;;;;;;5052566;28;19912;-77
2021/03/17 08:20:28;;;;;;;;;;;14.20;99.90;;;;;;5051868;28;19905;-77
2021/03/17 08:22:57;;;;;;;;;;;12.80;99.90;;;;;;5053006;28;20339;-80
2021/03/17 08:25:45;;;;;;;;;;;12.00;99.90;;;;;;5051747;28;20115;-78
2021/03/17 08:28:24;;;;;;;;;;;11.60;99.90;;;;;;5051808;28;20011;-80
2021/03/17 08:30:53;;;;;;;;;;;11.00;99.90;;;;;;5052408;28;20382;-76
2021/03/17 08:33:34;;;;;;;;;;;10.60;99.90;;;;;;5052340;28;20049;-76
2021/03/17 08:36:15;;;;;;;;;;;10.10;99.90;;;;;;5052340;28;19908;-79
2021/03/17 08:38:54;;;;;;;;;;;9.80;99.90;;;;;;5052841;28;19955;-78
2021/03/17 08:41:38;;;;;;;;;;;9.50;99.90;;;;;;5053961;28;19916;-79
2021/03/17 08:44:14;;;;;;;;;;;9.00;99.90;;;;;;5053981;28;20330;-77
2021/03/17 08:46:40;;;;;;;;;;;8.80;99.90;;;;;;5054256;28;19916;-78
2021/03/17 08:49:09;;;;;;;;;;;8.70;99.90;;;;;;5055584;28;20287;-79
2021/03/17 08:51:44;;;;;;;;;;;8.60;99.90;;;;;;5057880;28;19983;-79
2021/03/17 08:54:28;;;;;;;;;;;8.80;99.90;;;;;;5056445;28;19913;-78
2021/03/17 08:56:53;;;;;;;;;;;9.20;99.90;;;;;;5053944;28;19931;-77
2021/03/17 08:59:19;;;;;;;;;;;9.20;99.90;;;;;;5037908;28;20356;-78
2021/03/17 09:01:45;;;;;;;;;;;9.00;99.90;;;;;;5032284;28;19910;-78
2021/03/17 09:04:10;;;;;;;;;;;8.80;99.90;;;;;;5033343;28;19938;-78
2021/03/17 09:06:36;;;;;;;;;;;8.60;99.90;;;;;;5033574;28;20030;-78
2021/03/17 09:09:02;;;;;;;;;;;8.30;99.90;;;;;;5033360;28;19909;-78
2021/03/17 09:11:30;;;;;;;;;;;8.20;99.90;;;;;;5033028;28;19909;-79
2021/03/17 09:13:57;;;;;;;;;;;7.80;99.90;;;;;;5032883;28;19936;-79
2021/03/17 09:16:23;;;;;;;;;;;7.50;99.90;;;;;;5032012;28;19963;-80
2021/03/17 09:19:04;;;;;;;;;;;7.30;99.90;;;;;;5032029;28;19909;-77
2021/03/17 09:21:30;;;;;;;;;;;7.20;99.90;;;;;;5032055;28;20276;-78
2021/03/17 09:23:55;;;;;;;;;;;7.10;99.90;;;;;;5033391;28;19916;-78
2021/03/17 09:26:28;;;;;;;;;;;7.10;99.90;;;;;;5035375;28;19916;-77
2021/03/17 09:28:53;;;;;;;;;;;7.10;99.90;;;;;;5044951;28;19909;-76
2021/03/17 09:31:21;;;;;;;;;;;7.10;99.90;;;;;;5032926;28;19979;-78
2021/03/17 09:33:47;;;;;;;;;;;7.20;99.90;;;;;;5043866;28;20375;-76
2021/03/17 09:36:13;;;;;;;;;;;7.20;99.90;;;;;;5051613;28;19991;-78
2021/03/17 09:38:43;;;;;;;;;;;7.30;99.90;;;;;;5052620;28;19909;-79
2021/03/17 09:41:13;;;;;;;;;;;7.50;99.90;;;;;;5053979;28;19912;-77
2021/03/17 09:43:40;;;;;;;;;;;7.60;99.90;;;;;;5053377;28;20149;-78
2021/03/17 09:46:21;;;;;;;;;;;7.70;99.90;;;;;;5046164;28;19917;-78
2021/03/17 09:48:47;;;;;;;;;;;7.70;99.90;;;;;;5045145;28;19951;-79
2021/03/17 09:51:17;;;;;;;;;;;7.70;99.90;;;;;;5056050;28;20356;-79
2021/03/17 09:53:43;;;;;;;;;;;7.70;99.90;;;;;;5056927;28;19908;-79
2021/03/17 09:56:08;;;;;;;;;;;7.80;99.90;;;;;;5057170;28;19996;-78
2021/03/17 09:58:34;;;;;;;;;;;8.00;99.90;;;;;;5057690;28;20356;-77
2021/03/17 10:01:08;;;;;;;;;;;8.10;99.90;;;;;;5056798;28;19908;-78
2021/03/17 10:03:34;;;;;;;;;;;7.70;99.90;;;;;;5056729;28;20007;-79
2021/03/17 10:06:00;;;;;;;;;;;7.60;99.90;;;;;;5057900;28;19944;-79
2021/03/17 10:08:25;;;;;;;;;;;7.40;99.90;;;;;;5059027;28;19940;-78
2021/03/17 10:10:51;;;;;;;;;;;7.20;99.90;;;;;;5056679;28;19909;-78
2021/03/17 10:13:16;;;;;;;;;;;7.20;99.90;;;;;;5057223;28;19915;-79
2021/03/17 10:15:42;;;;;;;;;;;7.00;99.90;;;;;;5057027;28;20411;-79
2021/03/17 10:18:13;;;;;;;;;;;6.90;99.90;;;;;;5055372;28;20418;-79
2021/03/17 10:20:39;;;;;;;;;;;6.80;99.90;;;;;;5055391;28;19958;-79
2021/03/17 10:23:04;;;;;;;;;;;6.70;99.90;;;;;;5055545;28;19913;-78
2021/03/17 10:25:30;;;;;;;;;;;6.50;99.90;;;;;;5055877;28;19961;-78
2021/03/17 10:28:04;;;;;;;;;;;6.40;99.90;;;;;;5054037;28;19917;-78
2021/03/17 10:30:37;;;;;;;;;;;6.10;99.90;;;;;;5054181;28;19909;-79
2021/03/17 10:33:08;;;;;;;;;;;6.10;99.90;;;;;;5054001;28;20391;-80
2021/03/17 10:35:33;;;;;;;;;;;6.00;99.90;;;;;;5054648;28;20427;-79
2021/03/17 10:38:00;;;;;;;;;;;5.90;99.90;;;;;;5055015;28;19983;-79
2021/03/17 10:40:26;;;;;;;;;;;6.00;99.90;;;;;;5055401;28;19909;-77
2021/03/17 10:42:56;;;;;;;;;;;5.90;99.90;;;;;;5054918;28;19909;-78
2021/03/17 10:45:21;;;;;;;;;;;6.00;99.90;;;;;;5055358;28;20284;-78
2021/03/17 10:47:48;;;;;;;;;;;5.70;99.90;;;;;;5054894;28;19909;-76
2021/03/17 10:50:17;;;;;;;;;;;5.70;99.90;;;;;;5055401;28;19939;-79
2021/03/17 10:52:44;;;;;;;;;;;5.90;99.90;;;;;;5053897;28;19909;-76
2021/03/17 10:55:12;;;;;;;;;;;6.10;99.90;;;;;;5053312;28;19963;-79
2021/03/17 10:57:37;;;;;;;;;;;6.20;99.90;;;;;;5054103;28;20010;-77
2021/03/17 11:00:10;;;;;;;;;;;6.50;99.90;;;;;;5053644;28;19951;-79
2021/03/17 11:02:35;;;;;;;;;;;6.70;99.90;;;;;;5052043;28;19912;-79
2021/03/17 11:05:11;;;;;;;;;;;6.70;99.90;;;;;;5034792;28;20003;-78
2021/03/17 11:07:45;;;;;;;;;;;6.50;99.90;;;;;;5034933;28;20352;-78
2021/03/17 11:10:26;;;;;;;;;;;6.40;99.90;;;;;;5034125;28;19909;-78
2021/03/17 11:12:52;;;;;;;;;;;6.60;99.90;;;;;;5034047;28;19916;-79
2021/03/17 11:15:22;;;;;;;;;;;7.20;99.90;;;;;;5033631;28;19917;-77
2021/03/17 11:17:51;;;;;;;;;;;8.00;99.90;;;;;;5033650;28;19932;-79
2021/03/17 11:20:16;;;;;;;;;;;8.70;99.90;;;;;;5034313;28;19909;-80
2021/03/17 11:22:42;;;;;;;;;;;8.60;99.90;;;;;;5034001;28;19979;-77
2021/03/17 11:25:07;;;;;;;;;;;8.90;99.90;;;;;;5033656;28;19913;-78
2021/03/17 11:27:33;;;;;;;;;;;8.80;99.90;;;;;;5035555;28;19909;-80
2021/03/17 11:29:58;;;;;;;;;;;8.40;99.90;;;;;;5034270;28;19916;-79
2021/03/17 11:32:28;;;;;;;;;;;8.00;99.90;;;;;;5035613;28;19917;-77
2021/03/17 11:34:54;;;;;;;;;;;7.80;99.90;;;;;;5046159;28;19952;-78
2021/03/17 11:37:19;;;;;;;;;;;7.70;99.90;;;;;;5045696;28;19920;-79
2021/03/17 11:39:44;;;;;;;;;;;7.60;99.90;;;;;;5041005;28;19909;-78
2021/03/17 11:42:10;;;;;;;;;;;7.20;99.90;;;;;;5045097;28;19913;-77
2021/03/17 11:44:35;;;;;;;;;;;7.20;99.90;;;;;;5041871;28;20014;-78
2021/03/17 11:47:01;;;;;;;;;;;7.50;99.90;;;;;;5041588;28;19909;-78
2021/03/17 11:49:26;;;;;;;;;;;7.60;99.90;;;;;;5041605;28;19913;-77
2021/03/17 11:51:52;;;;;;;;;;;8.50;99.90;;;;;;5042105;28;19913;-77
2021/03/17 11:54:17;;;;;;;4.50;2.08;;;10.40;99.90;;;;;;5040016;28;19913;-76
2021/03/17 11:56:43;;;;;;;;;;;12.30;99.90;;;;;;5042488;28;20021;-76
2021/03/17 11:59:09;;;;;;;5.40;2.30;;;13.20;99.90;;;;;;5041353;28;20379;-76
2021/03/17 12:01:34;;;;;;;5.15;2.20;;;13.50;99.90;;;;;;5042304;28;20099;-76
2021/03/17 12:04:00;;;;;;;3.20;1.60;;;14.10;99.90;;;;;;5042035;28;20064;-75
2021/03/17 12:06:25;;;;;;;;;;;14.30;99.90;;;;;;5039419;28;20447;-78
2021/03/17 12:08:51;;;;;;;1.60;1.40;;;14.70;99.90;;;;;;5040603;28;20318;-77
2021/03/17 12:11:18;;;;;;;1.85;1.67;;;15.30;99.90;;;;;;5031392;28;20408;-75
2021/03/17 12:13:43;;;;;;;;;;;14.50;99.90;;;;;;5031446;28;20552;-77
2021/03/17 12:16:09;;;;;;;;;;;13.20;99.90;;;;;;5032312;28;20023;-76
2021/03/17 12:18:34;;;;;;;;;;;11.40;99.90;;;;;;5033678;28;19951;-78
2021/03/17 12:20:59;;;;;;;;;;;10.10;99.90;;;;;;5036610;28;19912;-78
2021/03/17 12:23:25;;;;;;;;;;;9.30;99.90;;;;;;5037030;28;19972;-78
2021/03/17 12:25:50;;;;;;;;;;;8.90;99.90;;;;;;5036824;28;19912;-78
2021/03/17 12:28:16;;;;;;;;;;;8.40;99.90;;;;;;5034603;28;19905;-76
2021/03/17 12:30:42;;;;;;;;;;;8.50;99.90;;;;;;5033637;28;25107;-79
2021/03/17 12:33:08;;;;;;;;;;;8.70;99.90;;;;;;5036912;28;19917;-76
2021/03/17 12:35:35;;;;;;;;;;;9.50;99.90;;;;;;5035891;28;20306;-76
2021/03/17 12:38:01;;;;;;;;;;;11.00;99.90;;;;;;5044106;28;20378;-78
2021/03/17 12:40:27;;;;;;;;;;;11.70;99.90;;;;;;5054685;28;19908;-77
2021/03/17 12:42:53;;;;;;;;;;;11.20;99.90;;;;;;5045769;28;19976;-79
2021/03/17 12:45:20;;;;;;;;;;;10.90;99.90;;;;;;5035402;28;19909;-79
2021/03/17 12:47:46;;;;;;;;;;;10.70;99.90;;;;;;5037196;28;19909;-77
2021/03/17 12:50:13;;;;;;;;;;;10.90;99.90;;;;;;5055753;28;20135;-79
2021/03/17 12:52:39;;;;;;;;;;;10.10;99.90;;;;;;5055870;28;19952;-77
2021/03/17 12:55:05;;;;;;;;;;;9.40;99.90;;;;;;5055910;28;19908;-80
2021/03/17 12:57:30;;;;;;;;;;;9.00;99.90;;;;;;5057615;28;19904;-78
2021/03/17 12:59:57;;;;;;;;;;;8.40;99.90;;;;;;5056948;28;19905;-81
2021/03/17 13:02:23;;;;;;;;;;;7.30;99.90;;;;;;5040060;28;19941;-81
2021/03/17 13:04:48;;;;;;;;;;;6.50;99.90;;;;;;5038646;28;19916;-81
2021/03/17 13:07:14;;;;;;;;;;;6.40;99.90;;;;;;5039777;28;19936;-79
2021/03/17 13:09:39;;;;;;;;;;;6.30;99.90;;;;;;5037474;28;19905;-78
2021/03/17 13:12:05;;;;;;;;;;;6.20;99.90;;;;;;5036903;28;19905;-77
2021/03/17 13:14:30;;;;;;;;;;;6.20;99.90;;;;;;5035161;28;19939;-78
2021/03/17 13:16:56;;;;;;;;;;;6.50;99.90;;;;;;5035564;28;19932;-78
2021/03/17 13:19:21;;;;;;;;;;;6.70;99.90;;;;;;5037903;28;19904;-77
2021/03/17 13:21:51;;;;;;;;;;;6.80;99.90;;;;;;5038616;28;19989;-78
2021/03/17 13:24:17;;;;;;;;;;;7.00;99.90;;;;;;5037657;28;19905;-79
2021/03/17 13:26:43;;;;;;;;;;;7.40;99.90;;;;;;5055315;28;19909;-78
2021/03/17 13:29:08;;;;;;;;;;;7.50;99.90;;;;;;5059269;28;19919;-79
2021/03/17 13:31:34;;;;;;;;;;;7.80;99.90;;;;;;5058761;28;19913;-78
2021/03/17 13:33:59;;;;;;;;;;;7.80;99.90;;;;;;5057016;28;19919;-78
2021/03/17 13:36:25;;;;;;;;;;;6.90;99.90;;;;;;5058613;28;19980;-79
2021/03/17 13:38:50;;;;;;;;;;;6.90;99.90;;;;;;5038505;28;19905;-78
2021/03/17 13:41:16;;;;;;;;;;;6.80;99.90;;;;;;5037723;28;19909;-81
2021/03/17 13:43:41;;;;;;;;;;;6.60;99.90;;;;;;5037657;28;20375;-80
2021/03/17 13:46:07;;;;;;;;;;;6.20;99.90;;;;;;5039270;28;19905;-80
2021/03/17 13:48:32;;;;;;;;;;;6.20;99.90;;;;;;5037479;28;19905;-79
2021/03/17 13:50:58;;;;;;;;;;;6.70;99.90;;;;;;5037287;28;19909;-80
2021/03/17 13:53:24;;;;;;;;;;;6.70;99.90;;;;;;5038938;28;19948;-80
2021/03/17 13:55:49;;;;;;;;;;;6.50;99.90;;;;;;5035973;28;19996;-81
2021/03/17 13:58:15;;;;;;;;;;;6.20;99.90;;;;;;5036129;28;19956;-79
2021/03/17 14:00:40;;;;;;;;;;;6.40;99.90;;;;;;5036425;28;19912;-79
2021/03/17 14:03:06;;;;;;;;;;;6.40;99.90;;;;;;5036864;28;19905;-78
2021/03/17 14:05:31;;;;;;;;;;;6.40;99.90;;;;;;5034908;28;19905;-79
2021/03/17 14:07:57;;;;;;;;;;;6.30;99.90;;;;;;5035401;28;19905;-77
2021/03/17 14:10:24;;;;;;;;;;;6.30;99.90;;;;;;5034809;28;19905;-78
2021/03/17 14:12:50;;;;;;;;;;;6.70;99.90;;;;;;5038102;28;19913;-79
2021/03/17 14:15:16;;;;;;;;;;;6.90;99.90;;;;;;5046946;28;19967;-78
2021/03/17 14:17:43;;;;;;;;;;;7.10;99.90;;;;;;5043974;28;19919;-77
2021/03/17 14:20:09;;;;;;;;;;;7.40;99.90;;;;;;5043838;28;20375;-78
2021/03/17 14:22:35;;;;;;;;;;;7.70;99.90;;;;;;5034617;28;19905;-79
2021/03/17 14:25:00;;;;;;;;;;;7.40;99.90;;;;;;5050845;28;20306;-79
2021/03/17 14:27:26;;;;;;;;;;;7.20;99.90;;;;;;5051141;28;19917;-78